sensor_id;sensor_type;location;lat;lon;timestamp;P1;durP1;ratioP1;P2;durP2;ratioP2
41861;SDS011;27537;57.134;-2.136;2023-01-08T00:01:16;22.80;;;5.32;;
41861;SDS011;27537;57.134;-2.136;2023-01-08T00:03:43;20.92;;;3.97;;
41861;SDS011;27537;57.134;-2.136;2023-01-08T00:06:11;14.07;;;3.92;;
41861;SDS011;27537;57.134;-2.136;2023-01-08T00:08:40;23.52;;;4.45;;
41861;SDS011;27537;57.134;-2.136;2023-01-08T00:11:08;16.83;;;4.18;;
41861;SDS011;27537;57.134;-2.136;2023-01-08T00:13:34;20.73;;;5.05;;
41861;SDS011;27537;57.134;-2.136;2023-01-08T00:16:02;20.30;;;4.30;;
41861;SDS011;27537;57.134;-2.136;2023-01-08T00:18:36;26.25;;;4.97;;
41861;SDS011;27537;57.134;-2.136;2023-01-08T00:21:03;24.10;;;4.88;;
41861;SDS011;27537;57.134;-2.136;2023-01-08T00:23:31;25.73;;;3.92;;
41861;SDS011;27537;57.134;-2.136;2023-01-08T00:26:00;28.50;;;5.22;;
41861;SDS011;27537;57.134;-2.136;2023-01-08T00:28:28;20.80;;;4.72;;
41861;SDS011;27537;57.134;-2.136;2023-01-08T00:30:55;24.75;;;5.15;;
41861;SDS011;27537;57.134;-2.136;2023-01-08T00:33:22;26.33;;;4.55;;
41861;SDS011;27537;57.134;-2.136;2023-01-08T00:35:48;19.90;;;4.43;;
41861;SDS011;27537;57.134;-2.136;2023-01-08T00:38:15;17.02;;;4.18;;
41861;SDS011;27537;57.134;-2.136;2023-01-08T00:40:42;18.98;;;3.58;;
41861;SDS011;27537;57.134;-2.136;2023-01-08T00:43:09;16.75;;;4.10;;
41861;SDS011;27537;57.134;-2.136;2023-01-08T00:45:35;21.27;;;5.45;;
41861;SDS011;27537;57.134;-2.136;2023-01-08T00:48:02;20.00;;;4.07;;
41861;SDS011;27537;57.134;-2.136;2023-01-08T00:50:29;24.67;;;5.13;;
41861;SDS011;27537;57.134;-2.136;2023-01-08T00:52:56;24.73;;;4.65;;
41861;SDS011;27537;57.134;-2.136;2023-01-08T00:55:23;19.92;;;4.20;;
41861;SDS011;27537;57.134;-2.136;2023-01-08T00:57:49;19.58;;;4.05;;
41861;SDS011;27537;57.134;-2.136;2023-01-08T01:00:16;22.50;;;4.18;;
41861;SDS011;27537;57.134;-2.136;2023-01-08T01:02:44;25.15;;;5.03;;
41861;SDS011;27537;57.134;-2.136;2023-01-08T01:05:12;22.95;;;5.20;;
41861;SDS011;27537;57.134;-2.136;2023-01-08T01:07:40;40.22;;;6.25;;
41861;SDS011;27537;57.134;-2.136;2023-01-08T01:10:08;25.00;;;5.40;;
41861;SDS011;27537;57.134;-2.136;2023-01-08T01:12:36;25.05;;;5.45;;
41861;SDS011;27537;57.134;-2.136;2023-01-08T01:15:07;26.08;;;5.47;;
41861;SDS011;27537;57.134;-2.136;2023-01-08T01:17:37;26.60;;;4.68;;
41861;SDS011;27537;57.134;-2.136;2023-01-08T01:20:05;21.20;;;5.95;;
41861;SDS011;27537;57.134;-2.136;2023-01-08T01:22:34;21.83;;;5.13;;
41861;SDS011;27537;57.134;-2.136;2023-01-08T01:25:01;33.50;;;5.90;;
41861;SDS011;27537;57.134;-2.136;2023-01-08T01:27:28;31.42;;;5.95;;
41861;SDS011;27537;57.134;-2.136;2023-01-08T01:29:55;25.20;;;5.50;;
41861;SDS011;27537;57.134;-2.136;2023-01-08T01:32:22;25.90;;;5.63;;
41861;SDS011;27537;57.134;-2.136;2023-01-08T01:34:49;22.63;;;6.15;;
41861;SDS011;27537;57.134;-2.136;2023-01-08T01:37:15;25.20;;;4.72;;
41861;SDS011;27537;57.134;-2.136;2023-01-08T01:39:42;27.80;;;5.40;;
41861;SDS011;27537;57.134;-2.136;2023-01-08T01:42:12;21.00;;;5.03;;
41861;SDS011;27537;57.134;-2.136;2023-01-08T01:45:00;30.77;;;6.05;;
41861;SDS011;27537;57.134;-2.136;2023-01-08T01:47:35;25.15;;;6.40;;
41861;SDS011;27537;57.134;-2.136;2023-01-08T01:50:05;23.10;;;5.07;;
41861;SDS011;27537;57.134;-2.136;2023-01-08T01:52:36;27.10;;;5.88;;
41861;SDS011;27537;57.134;-2.136;2023-01-08T01:55:05;27.45;;;6.00;;
41861;SDS011;27537;57.134;-2.136;2023-01-08T01:57:34;33.13;;;6.60;;
41861;SDS011;27537;57.134;-2.136;2023-01-08T02:00:04;33.00;;;6.75;;
41861;SDS011;27537;57.134;-2.136;2023-01-08T02:02:34;24.70;;;5.70;;
41861;SDS011;27537;57.134;-2.136;2023-01-08T02:05:01;26.25;;;6.55;;
41861;SDS011;27537;57.134;-2.136;2023-01-08T02:10:26;21.40;;;5.35;;
41861;SDS011;27537;57.134;-2.136;2023-01-08T02:13:12;17.83;;;4.60;;
41861;SDS011;27537;57.134;-2.136;2023-01-08T02:18:39;18.05;;;3.92;;
41861;SDS011;27537;57.134;-2.136;2023-01-08T02:21:30;14.65;;;2.95;;
41861;SDS011;27537;57.134;-2.136;2023-01-08T02:24:08;19.80;;;3.70;;
41861;SDS011;27537;57.134;-2.136;2023-01-08T02:26:41;20.02;;;5.40;;
41861;SDS011;27537;57.134;-2.136;2023-01-08T02:29:13;15.60;;;3.10;;
41861;SDS011;27537;57.134;-2.136;2023-01-08T02:31:43;13.85;;;3.33;;
41861;SDS011;27537;57.134;-2.136;2023-01-08T02:34:10;18.05;;;3.95;;
41861;SDS011;27537;57.134;-2.136;2023-01-08T02:44:36;17.67;;;3.47;;
41861;SDS011;27537;57.134;-2.136;2023-01-08T02:47:08;13.25;;;2.95;;
41861;SDS011;27537;57.134;-2.136;2023-01-08T02:49:41;14.40;;;3.17;;
41861;SDS011;27537;57.134;-2.136;2023-01-08T02:52:12;19.30;;;3.28;;
41861;SDS011;27537;57.134;-2.136;2023-01-08T02:54:41;16.83;;;3.33;;
41861;SDS011;27537;57.134;-2.136;2023-01-08T02:57:12;14.45;;;3.78;;
41861;SDS011;27537;57.134;-2.136;2023-01-08T02:59:42;19.85;;;4.68;;
41861;SDS011;27537;57.134;-2.136;2023-01-08T03:02:11;15.77;;;3.15;;
41861;SDS011;27537;57.134;-2.136;2023-01-08T03:04:39;17.80;;;3.25;;
41861;SDS011;27537;57.134;-2.136;2023-01-08T03:07:14;15.40;;;2.92;;
41861;SDS011;27537;57.134;-2.136;2023-01-08T03:09:41;13.13;;;3.03;;
41861;SDS011;27537;57.134;-2.136;2023-01-08T03:12:10;18.30;;;3.17;;
41861;SDS011;27537;57.134;-2.136;2023-01-08T03:15:00;13.30;;;3.13;;
41861;SDS011;27537;57.134;-2.136;2023-01-08T03:17:34;11.20;;;2.42;;
41861;SDS011;27537;57.134;-2.136;2023-01-08T03:20:06;22.10;;;3.53;;
41861;SDS011;27537;57.134;-2.136;2023-01-08T03:22:38;11.63;;;2.97;;
41861;SDS011;27537;57.134;-2.136;2023-01-08T03:25:07;10.18;;;2.75;;
41861;SDS011;27537;57.134;-2.136;2023-01-08T03:27:36;10.35;;;3.20;;
41861;SDS011;27537;57.134;-2.136;2023-01-08T03:30:08;13.02;;;2.85;;
41861;SDS011;27537;57.134;-2.136;2023-01-08T03:32:38;13.15;;;2.92;;
41861;SDS011;27537;57.134;-2.136;2023-01-08T03:35:07;12.93;;;2.35;;
41861;SDS011;27537;57.134;-2.136;2023-01-08T03:37:38;11.10;;;2.70;;
41861;SDS011;27537;57.134;-2.136;2023-01-08T03:40:19;13.23;;;2.58;;
41861;SDS011;27537;57.134;-2.136;2023-01-08T03:42:50;13.65;;;2.72;;
41861;SDS011;27537;57.134;-2.136;2023-01-08T03:45:16;13.43;;;3.05;;
41861;SDS011;27537;57.134;-2.136;2023-01-08T03:47:44;10.38;;;2.10;;
41861;SDS011;27537;57.134;-2.136;2023-01-08T03:50:13;14.60;;;3.03;;
41861;SDS011;27537;57.134;-2.136;2023-01-08T03:52:44;11.95;;;2.58;;
41861;SDS011;27537;57.134;-2.136;2023-01-08T03:55:11;13.93;;;2.42;;
41861;SDS011;27537;57.134;-2.136;2023-01-08T03:57:37;13.98;;;3.63;;
41861;SDS011;27537;57.134;-2.136;2023-01-08T04:00:04;14.73;;;2.60;;
41861;SDS011;27537;57.134;-2.136;2023-01-08T04:02:31;15.98;;;2.50;;
41861;SDS011;27537;57.134;-2.136;2023-01-08T04:04:58;15.20;;;2.75;;
41861;SDS011;27537;57.134;-2.136;2023-01-08T04:07:25;11.98;;;2.58;;
41861;SDS011;27537;57.134;-2.136;2023-01-08T04:09:52;10.98;;;2.45;;
41861;SDS011;27537;57.134;-2.136;2023-01-08T04:12:18;11.25;;;2.65;;
41861;SDS011;27537;57.134;-2.136;2023-01-08T04:14:45;13.32;;;3.15;;
41861;SDS011;27537;57.134;-2.136;2023-01-08T04:17:12;11.20;;;2.95;;
41861;SDS011;27537;57.134;-2.136;2023-01-08T04:19:39;13.57;;;4.10;;
41861;SDS011;27537;57.134;-2.136;2023-01-08T04:22:05;17.20;;;2.95;;
41861;SDS011;27537;57.134;-2.136;2023-01-08T04:24:35;14.88;;;2.78;;
41861;SDS011;27537;57.134;-2.136;2023-01-08T04:27:02;24.02;;;4.85;;
41861;SDS011;27537;57.134;-2.136;2023-01-08T04:29:29;21.33;;;3.58;;
41861;SDS011;27537;57.134;-2.136;2023-01-08T04:31:56;15.05;;;3.67;;
41861;SDS011;27537;57.134;-2.136;2023-01-08T04:34:23;20.20;;;4.13;;
41861;SDS011;27537;57.134;-2.136;2023-01-08T04:36:49;20.60;;;3.47;;
41861;SDS011;27537;57.134;-2.136;2023-01-08T04:39:16;14.30;;;2.75;;
41861;SDS011;27537;57.134;-2.136;2023-01-08T04:41:43;20.75;;;3.92;;
41861;SDS011;27537;57.134;-2.136;2023-01-08T04:44:09;24.13;;;4.60;;
41861;SDS011;27537;57.134;-2.136;2023-01-08T04:46:36;15.68;;;3.45;;
41861;SDS011;27537;57.134;-2.136;2023-01-08T04:49:03;17.83;;;3.40;;
41861;SDS011;27537;57.134;-2.136;2023-01-08T04:51:30;20.38;;;3.90;;
41861;SDS011;27537;57.134;-2.136;2023-01-08T04:53:56;18.20;;;4.80;;
41861;SDS011;27537;57.134;-2.136;2023-01-08T04:56:23;15.18;;;3.50;;
41861;SDS011;27537;57.134;-2.136;2023-01-08T04:58:50;15.70;;;5.28;;
41861;SDS011;27537;57.134;-2.136;2023-01-08T05:01:19;15.73;;;3.63;;
41861;SDS011;27537;57.134;-2.136;2023-01-08T05:03:51;21.75;;;4.78;;
41861;SDS011;27537;57.134;-2.136;2023-01-08T05:06:22;13.43;;;3.30;;
41861;SDS011;27537;57.134;-2.136;2023-01-08T05:08:49;15.07;;;2.83;;
41861;SDS011;27537;57.134;-2.136;2023-01-08T05:11:16;17.55;;;3.95;;
41861;SDS011;27537;57.134;-2.136;2023-01-08T05:13:45;16.58;;;3.63;;
41861;SDS011;27537;57.134;-2.136;2023-01-08T05:16:13;20.13;;;4.65;;
41861;SDS011;27537;57.134;-2.136;2023-01-08T05:18:41;13.65;;;3.28;;
41861;SDS011;27537;57.134;-2.136;2023-01-08T05:21:08;11.52;;;3.47;;
41861;SDS011;27537;57.134;-2.136;2023-01-08T05:23:35;14.48;;;3.22;;
41861;SDS011;27537;57.134;-2.136;2023-01-08T05:26:03;12.07;;;2.60;;
41861;SDS011;27537;57.134;-2.136;2023-01-08T05:28:32;11.45;;;3.17;;
41861;SDS011;27537;57.134;-2.136;2023-01-08T05:30:59;17.73;;;3.58;;
41861;SDS011;27537;57.134;-2.136;2023-01-08T05:33:26;15.30;;;3.17;;
41861;SDS011;27537;57.134;-2.136;2023-01-08T05:35:53;16.55;;;2.78;;
41861;SDS011;27537;57.134;-2.136;2023-01-08T05:38:19;16.42;;;3.47;;
41861;SDS011;27537;57.134;-2.136;2023-01-08T05:40:46;14.18;;;3.65;;
41861;SDS011;27537;57.134;-2.136;2023-01-08T05:43:13;16.20;;;3.85;;
41861;SDS011;27537;57.134;-2.136;2023-01-08T05:45:40;15.77;;;3.53;;
41861;SDS011;27537;57.134;-2.136;2023-01-08T05:48:06;28.95;;;4.25;;
41861;SDS011;27537;57.134;-2.136;2023-01-08T05:50:33;17.65;;;4.35;;
41861;SDS011;27537;57.134;-2.136;2023-01-08T05:53:04;16.58;;;3.75;;
41861;SDS011;27537;57.134;-2.136;2023-01-08T05:55:32;23.27;;;4.05;;
41861;SDS011;27537;57.134;-2.136;2023-01-08T05:58:00;24.23;;;4.60;;
41861;SDS011;27537;57.134;-2.136;2023-01-08T06:00:29;17.20;;;4.00;;
41861;SDS011;27537;57.134;-2.136;2023-01-08T06:02:57;19.70;;;3.83;;
41861;SDS011;27537;57.134;-2.136;2023-01-08T06:05:24;18.30;;;3.88;;
41861;SDS011;27537;57.134;-2.136;2023-01-08T06:07:51;16.45;;;3.40;;
41861;SDS011;27537;57.134;-2.136;2023-01-08T06:10:17;23.33;;;4.25;;
41861;SDS011;27537;57.134;-2.136;2023-01-08T06:12:44;15.07;;;3.75;;
41861;SDS011;27537;57.134;-2.136;2023-01-08T06:15:11;19.95;;;4.38;;
41861;SDS011;27537;57.134;-2.136;2023-01-08T06:17:38;23.02;;;4.72;;
41861;SDS011;27537;57.134;-2.136;2023-01-08T06:20:05;22.60;;;4.28;;
41861;SDS011;27537;57.134;-2.136;2023-01-08T06:22:32;24.38;;;5.75;;
41861;SDS011;27537;57.134;-2.136;2023-01-08T06:24:59;18.83;;;4.32;;
41861;SDS011;27537;57.134;-2.136;2023-01-08T06:27:27;20.60;;;3.88;;
41861;SDS011;27537;57.134;-2.136;2023-01-08T06:29:54;18.80;;;3.90;;
41861;SDS011;27537;57.134;-2.136;2023-01-08T06:32:20;21.00;;;4.85;;
41861;SDS011;27537;57.134;-2.136;2023-01-08T06:34:47;17.58;;;4.40;;
41861;SDS011;27537;57.134;-2.136;2023-01-08T06:37:14;23.92;;;5.38;;
41861;SDS011;27537;57.134;-2.136;2023-01-08T06:39:40;23.63;;;5.03;;
41861;SDS011;27537;57.134;-2.136;2023-01-08T06:42:07;19.60;;;4.00;;
41861;SDS011;27537;57.134;-2.136;2023-01-08T06:44:34;17.20;;;4.40;;
41861;SDS011;27537;57.134;-2.136;2023-01-08T06:47:01;21.75;;;4.22;;
41861;SDS011;27537;57.134;-2.136;2023-01-08T06:49:27;31.60;;;5.47;;
41861;SDS011;27537;57.134;-2.136;2023-01-08T06:51:54;22.73;;;4.78;;
41861;SDS011;27537;57.134;-2.136;2023-01-08T06:54:22;31.63;;;6.97;;
41861;SDS011;27537;57.134;-2.136;2023-01-08T06:56:49;28.02;;;5.35;;
41861;SDS011;27537;57.134;-2.136;2023-01-08T06:59:19;23.38;;;5.20;;
41861;SDS011;27537;57.134;-2.136;2023-01-08T07:01:46;23.42;;;5.45;;
41861;SDS011;27537;57.134;-2.136;2023-01-08T07:04:13;26.38;;;5.97;;
41861;SDS011;27537;57.134;-2.136;2023-01-08T07:06:40;32.60;;;5.03;;
41861;SDS011;27537;57.134;-2.136;2023-01-08T07:09:08;32.08;;;5.55;;
41861;SDS011;27537;57.134;-2.136;2023-01-08T07:11:38;39.05;;;8.20;;
41861;SDS011;27537;57.134;-2.136;2023-01-08T07:14:05;20.95;;;5.07;;
41861;SDS011;27537;57.134;-2.136;2023-01-08T07:16:32;31.25;;;6.15;;
41861;SDS011;27537;57.134;-2.136;2023-01-08T07:18:59;27.30;;;5.65;;
41861;SDS011;27537;57.134;-2.136;2023-01-08T07:21:26;24.95;;;5.75;;
41861;SDS011;27537;57.134;-2.136;2023-01-08T07:23:53;25.65;;;5.50;;
41861;SDS011;27537;57.134;-2.136;2023-01-08T07:26:19;26.20;;;5.10;;
41861;SDS011;27537;57.134;-2.136;2023-01-08T07:28:46;26.30;;;5.55;;
41861;SDS011;27537;57.134;-2.136;2023-01-08T07:31:13;25.65;;;4.75;;
41861;SDS011;27537;57.134;-2.136;2023-01-08T07:33:39;28.02;;;6.97;;
41861;SDS011;27537;57.134;-2.136;2023-01-08T07:36:06;32.58;;;6.88;;
41861;SDS011;27537;57.134;-2.136;2023-01-08T07:38:33;27.10;;;5.72;;
41861;SDS011;27537;57.134;-2.136;2023-01-08T07:41:00;27.52;;;6.28;;
41861;SDS011;27537;57.134;-2.136;2023-01-08T07:43:27;32.75;;;6.82;;
41861;SDS011;27537;57.134;-2.136;2023-01-08T07:45:55;30.27;;;6.13;;
41861;SDS011;27537;57.134;-2.136;2023-01-08T07:48:23;26.85;;;5.30;;
41861;SDS011;27537;57.134;-2.136;2023-01-08T07:50:49;26.58;;;5.03;;
41861;SDS011;27537;57.134;-2.136;2023-01-08T07:53:16;24.30;;;5.47;;
41861;SDS011;27537;57.134;-2.136;2023-01-08T07:55:43;32.70;;;6.93;;
41861;SDS011;27537;57.134;-2.136;2023-01-08T07:58:10;32.30;;;6.63;;
41861;SDS011;27537;57.134;-2.136;2023-01-08T08:00:38;28.80;;;5.18;;
41861;SDS011;27537;57.134;-2.136;2023-01-08T08:03:06;30.98;;;5.70;;
41861;SDS011;27537;57.134;-2.136;2023-01-08T08:05:37;27.27;;;5.07;;
41861;SDS011;27537;57.134;-2.136;2023-01-08T08:08:08;31.17;;;6.65;;
41861;SDS011;27537;57.134;-2.136;2023-01-08T08:10:36;29.15;;;6.07;;
41861;SDS011;27537;57.134;-2.136;2023-01-08T08:13:03;22.70;;;5.30;;
41861;SDS011;27537;57.134;-2.136;2023-01-08T08:15:40;29.83;;;6.05;;
41861;SDS011;27537;57.134;-2.136;2023-01-08T08:18:07;36.55;;;7.50;;
41861;SDS011;27537;57.134;-2.136;2023-01-08T08:20:38;30.60;;;6.97;;
41861;SDS011;27537;57.134;-2.136;2023-01-08T08:23:09;28.15;;;5.38;;
41861;SDS011;27537;57.134;-2.136;2023-01-08T08:25:41;44.15;;;7.65;;
41861;SDS011;27537;57.134;-2.136;2023-01-08T08:28:09;21.08;;;4.72;;
41861;SDS011;27537;57.134;-2.136;2023-01-08T08:30:38;41.25;;;7.65;;
41861;SDS011;27537;57.134;-2.136;2023-01-08T08:33:08;33.50;;;8.07;;
41861;SDS011;27537;57.134;-2.136;2023-01-08T08:35:35;28.30;;;6.25;;
41861;SDS011;27537;57.134;-2.136;2023-01-08T08:38:03;36.55;;;6.82;;
41861;SDS011;27537;57.134;-2.136;2023-01-08T08:40:31;26.58;;;6.13;;
41861;SDS011;27537;57.134;-2.136;2023-01-08T08:43:02;22.60;;;5.63;;
41861;SDS011;27537;57.134;-2.136;2023-01-08T08:45:30;36.20;;;8.00;;
41861;SDS011;27537;57.134;-2.136;2023-01-08T08:47:56;35.60;;;5.63;;
41861;SDS011;27537;57.134;-2.136;2023-01-08T08:50:23;35.75;;;5.57;;
41861;SDS011;27537;57.134;-2.136;2023-01-08T08:52:51;22.30;;;5.90;;
41861;SDS011;27537;57.134;-2.136;2023-01-08T08:55:20;26.80;;;6.22;;
41861;SDS011;27537;57.134;-2.136;2023-01-08T08:57:50;29.15;;;6.88;;
41861;SDS011;27537;57.134;-2.136;2023-01-08T09:00:18;36.15;;;7.05;;
41861;SDS011;27537;57.134;-2.136;2023-01-08T09:02:45;32.00;;;7.07;;
41861;SDS011;27537;57.134;-2.136;2023-01-08T09:05:16;36.95;;;5.75;;
41861;SDS011;27537;57.134;-2.136;2023-01-08T09:07:43;26.55;;;5.10;;
41861;SDS011;27537;57.134;-2.136;2023-01-08T09:10:12;35.33;;;6.85;;
41861;SDS011;27537;57.134;-2.136;2023-01-08T09:12:39;25.02;;;7.88;;
41861;SDS011;27537;57.134;-2.136;2023-01-08T09:15:08;22.38;;;6.47;;
41861;SDS011;27537;57.134;-2.136;2023-01-08T09:17:35;29.58;;;6.22;;
41861;SDS011;27537;57.134;-2.136;2023-01-08T09:20:04;30.80;;;6.45;;
41861;SDS011;27537;57.134;-2.136;2023-01-08T09:22:32;27.02;;;5.97;;
41861;SDS011;27537;57.134;-2.136;2023-01-08T09:24:59;35.45;;;6.75;;
41861;SDS011;27537;57.134;-2.136;2023-01-08T09:27:28;54.13;;;8.68;;
41861;SDS011;27537;57.134;-2.136;2023-01-08T09:29:54;25.52;;;5.93;;
41861;SDS011;27537;57.134;-2.136;2023-01-08T09:32:21;28.75;;;5.90;;
41861;SDS011;27537;57.134;-2.136;2023-01-08T09:34:48;25.27;;;6.25;;
41861;SDS011;27537;57.134;-2.136;2023-01-08T09:37:15;34.75;;;7.00;;
41861;SDS011;27537;57.134;-2.136;2023-01-08T09:39:42;22.80;;;5.63;;
41861;SDS011;27537;57.134;-2.136;2023-01-08T09:42:13;23.58;;;5.65;;
41861;SDS011;27537;57.134;-2.136;2023-01-08T09:44:41;23.75;;;6.10;;
41861;SDS011;27537;57.134;-2.136;2023-01-08T09:47:22;28.95;;;5.60;;
41861;SDS011;27537;57.134;-2.136;2023-01-08T09:49:54;35.15;;;5.78;;
41861;SDS011;27537;57.134;-2.136;2023-01-08T09:52:25;19.08;;;5.53;;
41861;SDS011;27537;57.134;-2.136;2023-01-08T09:54:52;34.03;;;6.75;;
41861;SDS011;27537;57.134;-2.136;2023-01-08T09:57:20;25.33;;;6.28;;
41861;SDS011;27537;57.134;-2.136;2023-01-08T09:59:48;31.08;;;6.65;;
41861;SDS011;27537;57.134;-2.136;2023-01-08T10:02:19;27.77;;;5.03;;
41861;SDS011;27537;57.134;-2.136;2023-01-08T10:07:20;28.50;;;6.18;;
41861;SDS011;27537;57.134;-2.136;2023-01-08T10:09:50;22.75;;;7.05;;
41861;SDS011;27537;57.134;-2.136;2023-01-08T10:12:27;24.85;;;5.18;;
41861;SDS011;27537;57.134;-2.136;2023-01-08T10:14:57;28.38;;;5.93;;
41861;SDS011;27537;57.134;-2.136;2023-01-08T10:17:39;31.20;;;6.65;;
41861;SDS011;27537;57.134;-2.136;2023-01-08T10:20:20;28.35;;;6.32;;
41861;SDS011;27537;57.134;-2.136;2023-01-08T10:22:49;26.75;;;5.45;;
41861;SDS011;27537;57.134;-2.136;2023-01-08T10:25:22;31.97;;;6.33;;
41861;SDS011;27537;57.134;-2.136;2023-01-08T10:27:58;27.08;;;4.70;;
41861;SDS011;27537;57.134;-2.136;2023-01-08T10:33:10;32.25;;;7.00;;
41861;SDS011;27537;57.134;-2.136;2023-01-08T10:35:49;31.23;;;6.43;;
41861;SDS011;27537;57.134;-2.136;2023-01-08T10:38:25;24.52;;;5.22;;
41861;SDS011;27537;57.134;-2.136;2023-01-08T10:40:59;30.73;;;5.75;;
41861;SDS011;27537;57.134;-2.136;2023-01-08T10:43:30;36.42;;;8.07;;
41861;SDS011;27537;57.134;-2.136;2023-01-08T10:46:11;30.85;;;5.97;;
41861;SDS011;27537;57.134;-2.136;2023-01-08T10:48:50;35.35;;;8.40;;
41861;SDS011;27537;57.134;-2.136;2023-01-08T10:51:23;46.35;;;6.88;;
41861;SDS011;27537;57.134;-2.136;2023-01-08T10:53:52;31.27;;;6.97;;
41861;SDS011;27537;57.134;-2.136;2023-01-08T10:58:49;38.10;;;7.30;;
41861;SDS011;27537;57.134;-2.136;2023-01-08T11:01:17;33.10;;;6.10;;
41861;SDS011;27537;57.134;-2.136;2023-01-08T11:03:57;28.65;;;6.03;;
41861;SDS011;27537;57.134;-2.136;2023-01-08T11:06:33;32.47;;;6.75;;
41861;SDS011;27537;57.134;-2.136;2023-01-08T11:09:22;30.83;;;5.90;;
41861;SDS011;27537;57.134;-2.136;2023-01-08T11:11:53;34.17;;;7.88;;
41861;SDS011;27537;57.134;-2.136;2023-01-08T11:14:22;37.30;;;6.93;;
41861;SDS011;27537;57.134;-2.136;2023-01-08T11:16:55;23.58;;;5.82;;
41861;SDS011;27537;57.134;-2.136;2023-01-08T11:19:27;34.38;;;6.85;;
41861;SDS011;27537;57.134;-2.136;2023-01-08T11:21:58;34.47;;;7.13;;
41861;SDS011;27537;57.134;-2.136;2023-01-08T11:27:00;27.35;;;7.55;;
41861;SDS011;27537;57.134;-2.136;2023-01-08T11:29:35;29.88;;;5.78;;
41861;SDS011;27537;57.134;-2.136;2023-01-08T11:37:57;30.08;;;6.05;;
41861;SDS011;27537;57.134;-2.136;2023-01-08T11:48:55;40.55;;;8.02;;
41861;SDS011;27537;57.134;-2.136;2023-01-08T12:02:54;33.03;;;6.43;;
41861;SDS011;27537;57.134;-2.136;2023-01-08T12:08:10;46.70;;;8.25;;
41861;SDS011;27537;57.134;-2.136;2023-01-08T12:16:34;30.70;;;7.03;;
41861;SDS011;27537;57.134;-2.136;2023-01-08T12:24:38;24.45;;;5.22;;
41861;SDS011;27537;57.134;-2.136;2023-01-08T12:32:49;31.92;;;6.72;;
41861;SDS011;27537;57.134;-2.136;2023-01-08T12:35:30;37.97;;;7.63;;
41861;SDS011;27537;57.134;-2.136;2023-01-08T12:38:12;41.17;;;7.38;;
41861;SDS011;27537;57.134;-2.136;2023-01-08T12:46:05;28.52;;;6.13;;
41861;SDS011;27537;57.134;-2.136;2023-01-08T12:48:32;36.95;;;5.85;;
41861;SDS011;27537;57.134;-2.136;2023-01-08T12:51:13;29.40;;;6.45;;
41861;SDS011;27537;57.134;-2.136;2023-01-08T12:59:47;17.10;;;4.10;;
41861;SDS011;27537;57.134;-2.136;2023-01-08T13:07:53;14.18;;;2.70;;
41861;SDS011;27537;57.134;-2.136;2023-01-08T13:12:57;14.40;;;3.42;;
41861;SDS011;27537;57.134;-2.136;2023-01-08T13:15:28;12.27;;;3.88;;
41861;SDS011;27537;57.134;-2.136;2023-01-08T13:17:57;15.13;;;3.85;;
41861;SDS011;27537;57.134;-2.136;2023-01-08T13:20:33;11.25;;;2.63;;
41861;SDS011;27537;57.134;-2.136;2023-01-08T13:23:04;14.20;;;3.67;;
41861;SDS011;27537;57.134;-2.136;2023-01-08T13:28:00;16.20;;;3.00;;
41861;SDS011;27537;57.134;-2.136;2023-01-08T13:30:42;15.25;;;4.25;;
41861;SDS011;27537;57.134;-2.136;2023-01-08T13:33:22;10.70;;;2.88;;
41861;SDS011;27537;57.134;-2.136;2023-01-08T13:38:38;14.32;;;3.10;;
41861;SDS011;27537;57.134;-2.136;2023-01-08T13:41:22;11.32;;;3.00;;
41861;SDS011;27537;57.134;-2.136;2023-01-08T13:44:14;15.60;;;3.60;;
41861;SDS011;27537;57.134;-2.136;2023-01-08T13:47:02;10.95;;;2.60;;
41861;SDS011;27537;57.134;-2.136;2023-01-08T13:49:44;10.35;;;2.58;;
41861;SDS011;27537;57.134;-2.136;2023-01-08T13:52:31;17.13;;;2.78;;
41861;SDS011;27537;57.134;-2.136;2023-01-08T13:55:15;15.32;;;2.67;;
41861;SDS011;27537;57.134;-2.136;2023-01-08T13:57:46;12.18;;;2.60;;
41861;SDS011;27537;57.134;-2.136;2023-01-08T14:00:18;13.40;;;2.00;;
41861;SDS011;27537;57.134;-2.136;2023-01-08T14:05:20;12.52;;;2.25;;
41861;SDS011;27537;57.134;-2.136;2023-01-08T14:07:48;19.98;;;3.35;;
41861;SDS011;27537;57.134;-2.136;2023-01-08T14:10:15;16.27;;;2.63;;
41861;SDS011;27537;57.134;-2.136;2023-01-08T14:12:42;11.82;;;2.67;;
41861;SDS011;27537;57.134;-2.136;2023-01-08T14:15:19;12.52;;;2.50;;
41861;SDS011;27537;57.134;-2.136;2023-01-08T14:17:51;11.35;;;3.00;;
41861;SDS011;27537;57.134;-2.136;2023-01-08T14:20:20;14.63;;;3.20;;
41861;SDS011;27537;57.134;-2.136;2023-01-08T14:22:53;13.10;;;2.53;;
41861;SDS011;27537;57.134;-2.136;2023-01-08T14:25:20;15.63;;;4.93;;
41861;SDS011;27537;57.134;-2.136;2023-01-08T14:27:59;13.02;;;3.03;;
41861;SDS011;27537;57.134;-2.136;2023-01-08T14:30:27;10.90;;;2.35;;
41861;SDS011;27537;57.134;-2.136;2023-01-08T14:32:55;14.85;;;3.00;;
41861;SDS011;27537;57.134;-2.136;2023-01-08T14:35:32;18.35;;;4.13;;
41861;SDS011;27537;57.134;-2.136;2023-01-08T14:38:01;11.45;;;2.72;;
41861;SDS011;27537;57.134;-2.136;2023-01-08T14:40:33;11.25;;;2.75;;
41861;SDS011;27537;57.134;-2.136;2023-01-08T14:43:10;17.13;;;3.55;;
41861;SDS011;27537;57.134;-2.136;2023-01-08T14:45:45;16.85;;;2.85;;
41861;SDS011;27537;57.134;-2.136;2023-01-08T14:48:19;14.73;;;3.13;;
41861;SDS011;27537;57.134;-2.136;2023-01-08T14:51:12;11.65;;;3.22;;
41861;SDS011;27537;57.134;-2.136;2023-01-08T14:53:46;11.07;;;2.80;;
41861;SDS011;27537;57.134;-2.136;2023-01-08T14:56:18;13.00;;;3.13;;
41861;SDS011;27537;57.134;-2.136;2023-01-08T14:58:47;12.20;;;2.92;;
41861;SDS011;27537;57.134;-2.136;2023-01-08T15:01:16;17.60;;;4.68;;
41861;SDS011;27537;57.134;-2.136;2023-01-08T15:03:47;15.00;;;2.97;;
41861;SDS011;27537;57.134;-2.136;2023-01-08T15:06:25;10.48;;;2.75;;
41861;SDS011;27537;57.134;-2.136;2023-01-08T15:08:53;14.23;;;2.42;;
41861;SDS011;27537;57.134;-2.136;2023-01-08T15:11:22;11.30;;;2.47;;
41861;SDS011;27537;57.134;-2.136;2023-01-08T15:13:51;8.15;;;2.10;;
41861;SDS011;27537;57.134;-2.136;2023-01-08T15:16:29;12.13;;;2.33;;
41861;SDS011;27537;57.134;-2.136;2023-01-08T15:19:05;11.45;;;2.15;;
41861;SDS011;27537;57.134;-2.136;2023-01-08T15:21:35;9.77;;;2.63;;
41861;SDS011;27537;57.134;-2.136;2023-01-08T15:24:03;11.15;;;2.10;;
41861;SDS011;27537;57.134;-2.136;2023-01-08T15:26:32;8.18;;;2.10;;
41861;SDS011;27537;57.134;-2.136;2023-01-08T15:29:00;12.85;;;3.17;;
41861;SDS011;27537;57.134;-2.136;2023-01-08T15:31:31;7.68;;;2.25;;
41861;SDS011;27537;57.134;-2.136;2023-01-08T15:34:19;11.05;;;2.45;;
41861;SDS011;27537;57.134;-2.136;2023-01-08T15:36:46;9.30;;;2.00;;
41861;SDS011;27537;57.134;-2.136;2023-01-08T15:39:14;12.52;;;2.47;;
41861;SDS011;27537;57.134;-2.136;2023-01-08T15:41:41;9.05;;;2.13;;
41861;SDS011;27537;57.134;-2.136;2023-01-08T15:44:26;11.23;;;2.50;;
41861;SDS011;27537;57.134;-2.136;2023-01-08T15:46:53;13.35;;;3.17;;
41861;SDS011;27537;57.134;-2.136;2023-01-08T15:49:20;8.30;;;2.25;;
41861;SDS011;27537;57.134;-2.136;2023-01-08T15:51:47;14.27;;;2.70;;
41861;SDS011;27537;57.134;-2.136;2023-01-08T15:54:16;12.07;;;2.63;;
41861;SDS011;27537;57.134;-2.136;2023-01-08T15:56:44;8.68;;;2.00;;
41861;SDS011;27537;57.134;-2.136;2023-01-08T15:59:11;10.98;;;2.78;;
41861;SDS011;27537;57.134;-2.136;2023-01-08T16:01:37;11.88;;;2.60;;
41861;SDS011;27537;57.134;-2.136;2023-01-08T16:04:04;11.52;;;3.17;;
41861;SDS011;27537;57.134;-2.136;2023-01-08T16:06:31;16.80;;;3.60;;
41861;SDS011;27537;57.134;-2.136;2023-01-08T16:08:59;13.93;;;2.85;;
41861;SDS011;27537;57.134;-2.136;2023-01-08T16:11:27;11.52;;;2.65;;
41861;SDS011;27537;57.134;-2.136;2023-01-08T16:13:54;17.63;;;3.25;;